createdAt,value
2017-08-17T00:00:08.927Z,98.60
2017-08-17T00:05:10.591Z,98.30
2017-08-17T00:10:12.273Z,99.10
2017-08-17T00:15:13.936Z,98.40
2017-08-17T00:20:15.595Z,99.90
2017-08-17T00:25:18.309Z,98.80
2017-08-17T00:30:19.992Z,99.00
2017-08-17T00:35:21.812Z,99.90
2017-08-17T00:40:24.463Z,99.40
2017-08-17T00:45:26.148Z,99.90
2017-08-17T00:50:29.097Z,99.90
2017-08-17T00:55:30.759Z,99.90
2017-08-17T01:00:32.440Z,99.90
2017-08-17T01:05:35.132Z,99.90
2017-08-17T01:10:36.764Z,99.90
2017-08-17T01:15:38.494Z,99.90
2017-08-17T01:20:41.192Z,99.90
2017-08-17T01:25:42.852Z,99.90
2017-08-17T01:30:46.566Z,99.90
2017-08-17T01:35:48.253Z,99.90
2017-08-17T01:40:50.093Z,99.90
2017-08-17T01:45:51.964Z,99.90
2017-08-17T01:50:55.919Z,99.90
2017-08-17T01:55:58.201Z,99.90
2017-08-17T02:01:00.086Z,99.90
2017-08-17T02:06:02.985Z,99.90
2017-08-17T02:11:06.356Z,99.90
2017-08-17T02:16:08.173Z,99.90
2017-08-17T02:21:09.798Z,99.90
2017-08-17T02:26:16.025Z,99.90
2017-08-17T02:31:17.694Z,99.90
2017-08-17T02:36:36.050Z,99.90
2017-08-17T02:41:56.903Z,99.90
2017-08-17T02:47:13.455Z,99.90
2017-08-17T02:52:30.189Z,99.90
2017-08-17T02:57:45.623Z,99.90
2017-08-17T03:03:04.219Z,99.90
2017-08-17T03:08:23.744Z,99.90
2017-08-17T03:13:40.756Z,99.90
2017-08-17T03:18:42.491Z,99.90
2017-08-17T03:23:45.165Z,99.90
2017-08-17T03:28:47.827Z,99.90
2017-08-17T03:33:50.789Z,99.90
2017-08-17T03:38:53.489Z,99.90
2017-08-17T03:43:55.160Z,99.90
2017-08-17T03:48:56.808Z,99.90
2017-08-17T03:53:59.495Z,99.90
2017-08-17T03:59:04.889Z,99.90
2017-08-17T04:04:06.531Z,99.90
2017-08-17T04:09:08.811Z,99.90
2017-08-17T04:14:11.545Z,99.90
2017-08-17T04:19:13.217Z,99.90
2017-08-17T04:24:14.795Z,99.90
2017-08-17T04:29:16.566Z,99.90
2017-08-17T04:34:19.341Z,99.90
2017-08-17T04:39:21.039Z,99.90
2017-08-17T04:44:22.680Z,99.90
2017-08-17T04:49:24.355Z,99.90
2017-08-17T04:54:26.874Z,99.90
2017-08-17T04:59:29.545Z,99.90
2017-08-17T05:04:32.140Z,99.90
2017-08-17T05:09:34.450Z,99.90
2017-08-17T05:14:36.649Z,99.90
2017-08-17T05:19:39.024Z,99.90
2017-08-17T05:24:40.697Z,99.90
2017-08-17T05:29:42.473Z,99.90
2017-08-17T05:34:44.125Z,99.90
2017-08-17T05:39:45.788Z,99.90
2017-08-17T05:44:48.774Z,99.90
2017-08-17T05:49:50.393Z,99.90
2017-08-17T05:54:51.984Z,99.20
2017-08-17T05:59:53.737Z,99.90
2017-08-17T06:04:55.413Z,95.90
2017-08-17T06:09:57.084Z,93.00
2017-08-17T06:14:58.733Z,91.00
2017-08-17T06:20:00.429Z,89.00
2017-08-17T06:25:02.079Z,86.00
2017-08-17T06:30:04.611Z,84.20
2017-08-17T06:35:06.241Z,84.00
2017-08-17T06:40:07.774Z,81.50
2017-08-17T06:45:09.342Z,79.90
2017-08-17T06:50:10.920Z,79.60
2017-08-17T06:55:12.495Z,77.10
2017-08-17T07:00:14.149Z,74.30
2017-08-17T07:05:15.708Z,73.60
2017-08-17T07:10:17.259Z,71.50
2017-08-17T07:15:18.804Z,70.60
2017-08-17T07:20:20.360Z,71.30
2017-08-17T07:25:22.739Z,69.80
2017-08-17T07:30:24.293Z,69.80
2017-08-17T07:35:25.874Z,69.30
2017-08-17T07:40:27.437Z,69.50
2017-08-17T07:45:29.056Z,70.20
2017-08-17T07:50:30.692Z,68.60
2017-08-17T07:55:32.317Z,66.70
2017-08-17T08:00:33.924Z,67.80
2017-08-17T08:05:35.532Z,67.60
2017-08-17T08:10:37.121Z,63.60
2017-08-17T08:15:38.693Z,64.60
2017-08-17T08:20:40.270Z,64.90
2017-08-17T08:25:41.836Z,65.40
2017-08-17T08:30:43.395Z,64.20
2017-08-17T08:35:44.968Z,63.20
2017-08-17T08:40:46.519Z,65.70
2017-08-17T08:45:48.096Z,67.00
2017-08-17T08:50:49.685Z,69.20
2017-08-17T08:55:51.237Z,65.70
2017-08-17T09:00:53.554Z,65.20
2017-08-17T09:05:55.129Z,65.10
2017-08-17T09:10:56.711Z,67.00
2017-08-17T09:15:58.272Z,69.90
2017-08-17T09:20:59.783Z,71.00
2017-08-17T09:26:01.343Z,71.40
2017-08-17T09:31:02.904Z,71.60
2017-08-17T09:36:04.469Z,70.50
2017-08-17T09:41:06.023Z,68.00
2017-08-17T09:46:07.593Z,64.10
2017-08-17T09:51:09.163Z,64.10
2017-08-17T09:56:10.726Z,65.80
2017-08-17T10:01:12.280Z,62.60
2017-08-17T10:06:13.848Z,62.60
2017-08-17T10:11:15.420Z,60.60
2017-08-17T10:16:18.127Z,60.60
2017-08-17T10:21:19.696Z,62.60
2017-08-17T10:26:21.992Z,63.00
2017-08-17T10:31:23.565Z,63.00
2017-08-17T10:36:25.137Z,64.90
2017-08-17T10:41:26.707Z,62.50
2017-08-17T10:46:28.269Z,60.90
2017-08-17T10:51:29.846Z,61.90
2017-08-17T10:56:31.410Z,61.10
2017-08-17T11:01:32.972Z,61.90
2017-08-17T11:06:34.540Z,62.10
2017-08-17T11:11:36.056Z,59.90
2017-08-17T11:16:37.636Z,58.70
2017-08-17T11:21:39.211Z,59.60
2017-08-17T11:26:40.801Z,58.20
2017-08-17T11:31:42.389Z,59.60
2017-08-17T11:36:43.965Z,57.70
2017-08-17T11:41:45.541Z,58.20
2017-08-17T11:46:47.116Z,58.70
2017-08-17T11:51:48.677Z,58.30
2017-08-17T11:56:50.252Z,56.80
2017-08-17T12:01:51.932Z,59.80
2017-08-17T12:06:53.483Z,60.20
2017-08-17T12:11:55.059Z,60.60
2017-08-17T12:16:56.635Z,62.00
2017-08-17T12:21:58.195Z,63.10
2017-08-17T12:26:59.777Z,62.60
2017-08-17T12:32:01.362Z,64.20
2017-08-17T12:37:02.932Z,62.90
2017-08-17T12:42:04.503Z,57.00
2017-08-17T12:47:06.129Z,55.80
2017-08-17T12:52:07.644Z,56.50
2017-08-17T12:57:09.216Z,54.20
2017-08-17T13:02:10.784Z,53.30
2017-08-17T13:07:12.368Z,52.30
2017-08-17T13:12:13.930Z,54.50
2017-08-17T13:17:15.492Z,51.80
2017-08-17T13:22:17.073Z,48.40
2017-08-17T13:27:18.643Z,48.30
2017-08-17T13:32:20.213Z,48.40
2017-08-17T13:37:21.784Z,48.50
2017-08-17T13:42:23.358Z,49.60
2017-08-17T13:47:24.929Z,45.80
2017-08-17T13:52:26.499Z,48.30
2017-08-17T13:57:28.072Z,47.60
2017-08-17T14:02:29.664Z,46.90
2017-08-17T14:07:31.240Z,47.50
2017-08-17T14:12:32.822Z,48.50
2017-08-17T14:17:35.136Z,50.00
2017-08-17T14:22:36.703Z,50.00
2017-08-17T14:27:38.224Z,50.10
2017-08-17T14:32:39.811Z,48.00
2017-08-17T14:37:41.376Z,45.40
2017-08-17T14:42:42.952Z,45.70
2017-08-17T14:47:44.515Z,43.40
2017-08-17T14:52:46.079Z,43.70
2017-08-17T14:57:47.674Z,45.00
2017-08-17T15:02:49.285Z,41.80
2017-08-17T15:07:50.904Z,44.70
2017-08-17T15:12:52.472Z,44.60
2017-08-17T15:17:54.048Z,45.90
2017-08-17T15:22:55.611Z,45.90
2017-08-17T15:27:57.188Z,48.20
2017-08-17T15:32:58.748Z,47.10
2017-08-17T15:38:00.325Z,48.30
2017-08-17T15:43:01.893Z,49.30
2017-08-17T15:48:03.463Z,49.40
2017-08-17T15:53:05.025Z,49.80
2017-08-17T15:58:06.588Z,47.90
2017-08-17T16:03:08.156Z,47.80
2017-08-17T16:08:09.731Z,49.20
2017-08-17T16:13:11.292Z,48.70
2017-08-17T16:18:12.861Z,47.60
2017-08-17T16:23:14.428Z,48.50
2017-08-17T16:28:15.980Z,48.50
2017-08-17T16:33:17.549Z,48.40
2017-08-17T16:38:19.112Z,48.90
2017-08-17T16:43:20.698Z,49.20
2017-08-17T16:48:53.184Z,48.90
2017-08-17T16:53:55.386Z,49.80
2017-08-17T16:58:56.980Z,49.20
2017-08-17T17:03:58.544Z,50.10
2017-08-17T17:09:00.108Z,50.90
2017-08-17T17:14:02.470Z,51.10
2017-08-17T17:19:04.150Z,50.40
2017-08-17T17:24:05.815Z,50.70
2017-08-17T17:29:07.486Z,51.70
2017-08-17T17:34:09.158Z,51.70
2017-08-17T17:39:12.298Z,52.20
2017-08-17T17:44:13.839Z,52.60
2017-08-17T17:49:15.407Z,52.70
2017-08-17T17:54:16.956Z,53.70
2017-08-17T17:59:18.740Z,54.50
2017-08-17T18:04:21.940Z,54.50
2017-08-17T18:09:23.636Z,54.00
2017-08-17T18:14:25.284Z,56.80
2017-08-17T18:19:26.952Z,56.60
2017-08-17T18:24:29.140Z,56.40
2017-08-17T18:29:30.703Z,56.00
2017-08-17T18:34:33.022Z,56.60
2017-08-17T18:39:35.310Z,57.50
2017-08-17T18:44:36.983Z,57.10
2017-08-17T18:49:39.980Z,57.30
2017-08-17T18:54:42.684Z,56.40
2017-08-17T18:59:44.244Z,56.90
2017-08-17T19:04:46.235Z,58.00
2017-08-17T19:09:48.555Z,60.10
2017-08-17T19:14:50.376Z,59.50
2017-08-17T19:19:55.992Z,58.40
2017-08-17T19:24:58.092Z,59.00
2017-08-17T19:30:00.742Z,60.00
2017-08-17T19:35:02.392Z,60.50
2017-08-17T19:40:04.088Z,60.30
2017-08-17T19:45:05.762Z,59.10
2017-08-17T19:50:07.433Z,59.70
2017-08-17T19:55:09.089Z,62.20
2017-08-17T20:00:10.783Z,63.90
2017-08-17T20:05:12.340Z,64.20
2017-08-17T20:10:14.124Z,63.50
2017-08-17T20:15:15.768Z,63.50
2017-08-17T20:20:17.883Z,63.30
2017-08-17T20:25:19.523Z,63.00
2017-08-17T20:30:21.226Z,62.60
2017-08-17T20:35:23.346Z,62.70
2017-08-17T20:40:26.210Z,66.90
2017-08-17T20:45:27.888Z,67.00
2017-08-17T20:50:29.529Z,67.10
2017-08-17T20:55:31.872Z,66.70
2017-08-17T21:00:34.131Z,67.10
2017-08-17T21:05:35.684Z,66.20
2017-08-17T21:10:38.014Z,66.00
2017-08-17T21:15:39.739Z,66.40
2017-08-17T21:20:41.761Z,66.90
2017-08-17T21:25:44.599Z,66.10
2017-08-17T21:30:46.662Z,66.00
2017-08-17T21:35:48.303Z,66.00
2017-08-17T21:40:49.969Z,67.20
2017-08-17T21:45:51.619Z,69.80
2017-08-17T21:50:53.168Z,70.40
2017-08-17T21:55:54.782Z,71.10
2017-08-17T22:00:56.368Z,70.20
2017-08-17T22:05:58.023Z,70.40
2017-08-17T22:11:00.564Z,70.10
2017-08-17T22:16:02.190Z,70.50
2017-08-17T22:21:03.863Z,69.90
2017-08-17T22:26:05.436Z,70.40
2017-08-17T22:31:07.720Z,71.40
2017-08-17T22:36:10.601Z,71.20
2017-08-17T22:41:12.232Z,70.30
2017-08-17T22:46:13.967Z,70.60
2017-08-17T22:51:16.867Z,72.80
2017-08-17T22:56:19.216Z,72.00
2017-08-17T23:01:21.390Z,71.20
2017-08-17T23:06:23.780Z,71.10
2017-08-17T23:11:25.332Z,72.50
2017-08-17T23:16:27.691Z,72.30
2017-08-17T23:21:38.824Z,73.90
2017-08-17T23:26:40.530Z,74.20
2017-08-17T23:31:42.094Z,73.80
2017-08-17T23:36:43.644Z,75.30
2017-08-17T23:41:45.345Z,74.00
2017-08-17T23:46:47.705Z,78.80
2017-08-17T23:51:49.435Z,78.80
2017-08-17T23:56:51.755Z,78.30
